sensor_id;sensor_type;location;lat;lon;timestamp;temperature;humidity
30973;DHT22;25423;45.624;13.790;2022-09-23T00:02:20;14.10;99.90
30973;DHT22;25423;45.624;13.790;2022-09-23T00:04:46;14.10;99.90
30973;DHT22;25423;45.624;13.790;2022-09-23T00:07:12;13.90;99.90
30973;DHT22;25423;45.624;13.790;2022-09-23T00:09:37;13.80;99.90
30973;DHT22;25423;45.624;13.790;2022-09-23T00:12:03;13.80;99.90
30973;DHT22;25423;45.624;13.790;2022-09-23T00:14:30;13.80;99.90
30973;DHT22;25423;45.624;13.790;2022-09-23T00:16:55;13.80;99.90
30973;DHT22;25423;45.624;13.790;2022-09-23T00:19:21;13.90;99.90
30973;DHT22;25423;45.624;13.790;2022-09-23T00:21:47;13.80;99.90
30973;DHT22;25423;45.624;13.790;2022-09-23T00:24:12;13.80;99.90
30973;DHT22;25423;45.624;13.790;2022-09-23T00:26:40;13.80;99.90
30973;DHT22;25423;45.624;13.790;2022-09-23T00:29:06;13.80;99.90
30973;DHT22;25423;45.624;13.790;2022-09-23T00:31:32;14.00;99.90
30973;DHT22;25423;45.624;13.790;2022-09-23T00:33:58;14.10;99.90
30973;DHT22;25423;45.624;13.790;2022-09-23T00:36:25;14.10;99.90
30973;DHT22;25423;45.624;13.790;2022-09-23T00:38:51;14.10;99.90
30973;DHT22;25423;45.624;13.790;2022-09-23T00:41:17;14.20;99.90
30973;DHT22;25423;45.624;13.790;2022-09-23T00:43:50;14.20;99.90
30973;DHT22;25423;45.624;13.790;2022-09-23T00:46:17;14.20;99.90
30973;DHT22;25423;45.624;13.790;2022-09-23T00:48:44;14.10;99.90
30973;DHT22;25423;45.624;13.790;2022-09-23T00:51:11;14.10;99.90
30973;DHT22;25423;45.624;13.790;2022-09-23T00:53:38;14.10;99.90
30973;DHT22;25423;45.624;13.790;2022-09-23T00:56:05;14.20;99.90
30973;DHT22;25423;45.624;13.790;2022-09-23T00:58:32;14.10;99.90
30973;DHT22;25423;45.624;13.790;2022-09-23T01:00:59;14.00;99.90
30973;DHT22;25423;45.624;13.790;2022-09-23T01:03:25;14.00;99.90
30973;DHT22;25423;45.624;13.790;2022-09-23T01:05:52;14.00;99.90
30973;DHT22;25423;45.624;13.790;2022-09-23T01:08:18;14.00;99.90
30973;DHT22;25423;45.624;13.790;2022-09-23T01:10:59;14.00;99.90
30973;DHT22;25423;45.624;13.790;2022-09-23T01:34:01;13.60;99.90
30973;DHT22;25423;45.624;13.790;2022-09-23T01:39:00;13.70;99.90
30973;DHT22;25423;45.624;13.790;2022-09-23T01:44:10;13.80;99.90
30973;DHT22;25423;45.624;13.790;2022-09-23T01:49:08;13.80;99.90
30973;DHT22;25423;45.624;13.790;2022-09-23T01:51:39;13.80;99.90
30973;DHT22;25423;45.624;13.790;2022-09-23T01:57:06;13.80;99.90
30973;DHT22;25423;45.624;13.790;2022-09-23T01:59:37;13.90;99.90
30973;DHT22;25423;45.624;13.790;2022-09-23T02:02:08;13.90;99.90
30973;DHT22;25423;45.624;13.790;2022-09-23T02:04:41;13.90;99.90
30973;DHT22;25423;45.624;13.790;2022-09-23T02:07:12;13.90;99.90
30973;DHT22;25423;45.624;13.790;2022-09-23T02:09:41;13.90;99.90
30973;DHT22;25423;45.624;13.790;2022-09-23T02:12:09;13.90;99.90
30973;DHT22;25423;45.624;13.790;2022-09-23T02:14:54;13.90;99.90
30973;DHT22;25423;45.624;13.790;2022-09-23T02:17:26;13.90;99.90
30973;DHT22;25423;45.624;13.790;2022-09-23T02:19:54;13.90;99.90
30973;DHT22;25423;45.624;13.790;2022-09-23T02:22:25;13.90;99.90
30973;DHT22;25423;45.624;13.790;2022-09-23T02:24:53;13.80;99.90
30973;DHT22;25423;45.624;13.790;2022-09-23T02:27:24;13.80;99.90
30973;DHT22;25423;45.624;13.790;2022-09-23T02:30:02;13.80;99.90
30973;DHT22;25423;45.624;13.790;2022-09-23T02:40:40;13.50;99.90
30973;DHT22;25423;45.624;13.790;2022-09-23T02:43:19;13.50;99.90
30973;DHT22;25423;45.624;13.790;2022-09-23T02:45:46;13.50;99.90
30973;DHT22;25423;45.624;13.790;2022-09-23T02:48:13;13.50;99.90
30973;DHT22;25423;45.624;13.790;2022-09-23T02:50:40;13.50;99.90
30973;DHT22;25423;45.624;13.790;2022-09-23T02:53:06;13.50;99.90
30973;DHT22;25423;45.624;13.790;2022-09-23T02:55:32;13.40;99.90
30973;DHT22;25423;45.624;13.790;2022-09-23T02:58:01;13.40;99.90
30973;DHT22;25423;45.624;13.790;2022-09-23T03:03:19;13.40;99.90
30973;DHT22;25423;45.624;13.790;2022-09-23T03:05:52;13.40;99.90
30973;DHT22;25423;45.624;13.790;2022-09-23T03:08:26;13.40;99.90
30973;DHT22;25423;45.624;13.790;2022-09-23T03:11:06;13.30;99.90
30973;DHT22;25423;45.624;13.790;2022-09-23T03:16:03;13.40;99.90
30973;DHT22;25423;45.624;13.790;2022-09-23T03:18:35;13.40;99.90
30973;DHT22;25423;45.624;13.790;2022-09-23T03:21:05;13.40;99.90
30973;DHT22;25423;45.624;13.790;2022-09-23T03:23:33;13.50;99.90
30973;DHT22;25423;45.624;13.790;2022-09-23T03:26:00;13.50;99.90
30973;DHT22;25423;45.624;13.790;2022-09-23T03:28:29;13.50;99.90
30973;DHT22;25423;45.624;13.790;2022-09-23T03:30:55;13.40;99.90
30973;DHT22;25423;45.624;13.790;2022-09-23T03:33:24;13.40;99.90
30973;DHT22;25423;45.624;13.790;2022-09-23T03:35:53;13.30;99.90
30973;DHT22;25423;45.624;13.790;2022-09-23T03:38:39;13.30;99.90
30973;DHT22;25423;45.624;13.790;2022-09-23T03:41:08;13.30;99.90
30973;DHT22;25423;45.624;13.790;2022-09-23T03:43:36;13.30;99.90
30973;DHT22;25423;45.624;13.790;2022-09-23T03:46:02;13.30;99.90
30973;DHT22;25423;45.624;13.790;2022-09-23T03:48:27;13.20;99.90
30973;DHT22;25423;45.624;13.790;2022-09-23T03:50:53;13.30;99.90
30973;DHT22;25423;45.624;13.790;2022-09-23T03:53:19;13.30;99.90
30973;DHT22;25423;45.624;13.790;2022-09-23T03:55:46;13.30;99.90
30973;DHT22;25423;45.624;13.790;2022-09-23T03:58:12;13.30;99.90
30973;DHT22;25423;45.624;13.790;2022-09-23T04:00:38;13.20;99.90
30973;DHT22;25423;45.624;13.790;2022-09-23T04:03:03;13.20;99.90
30973;DHT22;25423;45.624;13.790;2022-09-23T04:05:29;13.30;99.90
30973;DHT22;25423;45.624;13.790;2022-09-23T04:07:55;13.30;99.90
30973;DHT22;25423;45.624;13.790;2022-09-23T04:10:21;13.30;99.90
30973;DHT22;25423;45.624;13.790;2022-09-23T04:12:47;13.20;99.90
30973;DHT22;25423;45.624;13.790;2022-09-23T04:15:12;13.20;99.90
30973;DHT22;25423;45.624;13.790;2022-09-23T04:17:38;13.20;99.90
30973;DHT22;25423;45.624;13.790;2022-09-23T04:20:04;13.10;99.90
30973;DHT22;25423;45.624;13.790;2022-09-23T04:22:31;13.10;99.90
30973;DHT22;25423;45.624;13.790;2022-09-23T04:24:57;13.10;99.90
30973;DHT22;25423;45.624;13.790;2022-09-23T04:27:22;13.10;99.90
30973;DHT22;25423;45.624;13.790;2022-09-23T04:29:48;13.10;99.90
30973;DHT22;25423;45.624;13.790;2022-09-23T04:32:14;13.10;99.90
30973;DHT22;25423;45.624;13.790;2022-09-23T04:34:39;13.10;99.90
30973;DHT22;25423;45.624;13.790;2022-09-23T04:37:05;13.10;99.90
30973;DHT22;25423;45.624;13.790;2022-09-23T04:39:31;13.00;99.90
30973;DHT22;25423;45.624;13.790;2022-09-23T04:41:57;13.10;99.90
30973;DHT22;25423;45.624;13.790;2022-09-23T04:44:22;13.10;99.90
30973;DHT22;25423;45.624;13.790;2022-09-23T04:46:48;13.10;99.90
30973;DHT22;25423;45.624;13.790;2022-09-23T04:49:14;13.10;99.90
30973;DHT22;25423;45.624;13.790;2022-09-23T04:51:40;13.10;99.90
30973;DHT22;25423;45.624;13.790;2022-09-23T04:54:08;13.10;99.90
30973;DHT22;25423;45.624;13.790;2022-09-23T04:56:34;13.10;99.90
30973;DHT22;25423;45.624;13.790;2022-09-23T04:59:00;13.10;99.90
30973;DHT22;25423;45.624;13.790;2022-09-23T05:01:31;13.10;99.90
30973;DHT22;25423;45.624;13.790;2022-09-23T05:03:59;13.10;99.90
30973;DHT22;25423;45.624;13.790;2022-09-23T05:06:30;13.20;99.90
30973;DHT22;25423;45.624;13.790;2022-09-23T05:08:56;13.10;99.90
30973;DHT22;25423;45.624;13.790;2022-09-23T05:11:22;13.10;99.90
30973;DHT22;25423;45.624;13.790;2022-09-23T05:13:49;13.10;99.90
30973;DHT22;25423;45.624;13.790;2022-09-23T05:16:15;13.10;99.90
30973;DHT22;25423;45.624;13.790;2022-09-23T05:18:41;13.10;99.90
30973;DHT22;25423;45.624;13.790;2022-09-23T05:21:11;13.20;99.90
30973;DHT22;25423;45.624;13.790;2022-09-23T05:23:37;13.20;99.90
30973;DHT22;25423;45.624;13.790;2022-09-23T05:26:10;13.20;99.90
30973;DHT22;25423;45.624;13.790;2022-09-23T05:28:36;13.20;99.90
30973;DHT22;25423;45.624;13.790;2022-09-23T05:31:07;13.30;99.90
30973;DHT22;25423;45.624;13.790;2022-09-23T05:33:34;13.30;99.90
30973;DHT22;25423;45.624;13.790;2022-09-23T05:36:00;13.30;99.90
30973;DHT22;25423;45.624;13.790;2022-09-23T05:38:27;13.30;99.90
30973;DHT22;25423;45.624;13.790;2022-09-23T05:40:56;13.40;99.90
30973;DHT22;25423;45.624;13.790;2022-09-23T05:43:22;13.40;99.90
30973;DHT22;25423;45.624;13.790;2022-09-23T05:45:49;13.40;99.90
30973;DHT22;25423;45.624;13.790;2022-09-23T05:48:16;13.50;99.90
30973;DHT22;25423;45.624;13.790;2022-09-23T05:50:49;13.50;99.90
30973;DHT22;25423;45.624;13.790;2022-09-23T05:53:15;13.50;99.90
30973;DHT22;25423;45.624;13.790;2022-09-23T05:55:40;13.60;99.90
30973;DHT22;25423;45.624;13.790;2022-09-23T05:58:06;13.60;99.90
30973;DHT22;25423;45.624;13.790;2022-09-23T06:00:32;13.60;99.90
30973;DHT22;25423;45.624;13.790;2022-09-23T06:02:57;13.60;99.90
30973;DHT22;25423;45.624;13.790;2022-09-23T06:05:23;13.60;99.90
30973;DHT22;25423;45.624;13.790;2022-09-23T06:07:49;13.50;99.90
30973;DHT22;25423;45.624;13.790;2022-09-23T06:10:14;13.50;99.90
30973;DHT22;25423;45.624;13.790;2022-09-23T06:12:40;13.50;99.90
30973;DHT22;25423;45.624;13.790;2022-09-23T06:15:08;13.60;99.90
30973;DHT22;25423;45.624;13.790;2022-09-23T06:17:34;13.60;99.90
30973;DHT22;25423;45.624;13.790;2022-09-23T06:19:59;13.70;99.90
30973;DHT22;25423;45.624;13.790;2022-09-23T06:22:25;13.80;99.90
30973;DHT22;25423;45.624;13.790;2022-09-23T06:24:51;13.90;99.90
30973;DHT22;25423;45.624;13.790;2022-09-23T06:27:17;14.10;99.90
30973;DHT22;25423;45.624;13.790;2022-09-23T06:29:42;14.10;99.90
30973;DHT22;25423;45.624;13.790;2022-09-23T06:32:08;14.30;99.90
30973;DHT22;25423;45.624;13.790;2022-09-23T06:34:34;14.40;99.90
30973;DHT22;25423;45.624;13.790;2022-09-23T06:36:59;14.50;99.90
30973;DHT22;25423;45.624;13.790;2022-09-23T06:39:25;14.70;99.90
30973;DHT22;25423;45.624;13.790;2022-09-23T06:41:50;14.80;99.90
30973;DHT22;25423;45.624;13.790;2022-09-23T06:44:16;14.70;99.90
30973;DHT22;25423;45.624;13.790;2022-09-23T06:46:42;14.70;99.90
30973;DHT22;25423;45.624;13.790;2022-09-23T06:49:08;14.80;99.90
30973;DHT22;25423;45.624;13.790;2022-09-23T06:51:34;14.90;99.90
30973;DHT22;25423;45.624;13.790;2022-09-23T06:54:01;15.00;99.90
30973;DHT22;25423;45.624;13.790;2022-09-23T06:56:26;15.00;99.90
30973;DHT22;25423;45.624;13.790;2022-09-23T06:58:52;15.00;99.90
30973;DHT22;25423;45.624;13.790;2022-09-23T07:01:19;15.10;99.90
30973;DHT22;25423;45.624;13.790;2022-09-23T07:03:50;15.20;99.90
30973;DHT22;25423;45.624;13.790;2022-09-23T07:06:16;15.30;99.90
30973;DHT22;25423;45.624;13.790;2022-09-23T07:08:43;15.40;99.90
30973;DHT22;25423;45.624;13.790;2022-09-23T07:11:11;15.50;99.90
30973;DHT22;25423;45.624;13.790;2022-09-23T07:13:38;15.50;99.90
30973;DHT22;25423;45.624;13.790;2022-09-23T07:16:04;15.50;99.90
30973;DHT22;25423;45.624;13.790;2022-09-23T07:18:31;15.60;99.90
30973;DHT22;25423;45.624;13.790;2022-09-23T07:21:08;15.70;99.90
30973;DHT22;25423;45.624;13.790;2022-09-23T07:23:34;15.70;99.90
30973;DHT22;25423;45.624;13.790;2022-09-23T07:26:00;15.80;99.90
30973;DHT22;25423;45.624;13.790;2022-09-23T07:28:28;16.00;99.90
30973;DHT22;25423;45.624;13.790;2022-09-23T07:30:54;16.20;99.90
30973;DHT22;25423;45.624;13.790;2022-09-23T07:33:20;16.30;99.90
30973;DHT22;25423;45.624;13.790;2022-09-23T07:35:46;16.40;99.90
30973;DHT22;25423;45.624;13.790;2022-09-23T07:38:11;16.50;99.90
30973;DHT22;25423;45.624;13.790;2022-09-23T07:40:37;16.50;99.90
30973;DHT22;25423;45.624;13.790;2022-09-23T07:43:06;16.60;99.90
30973;DHT22;25423;45.624;13.790;2022-09-23T07:45:33;16.50;99.90
30973;DHT22;25423;45.624;13.790;2022-09-23T07:47:59;16.50;99.90
30973;DHT22;25423;45.624;13.790;2022-09-23T07:50:24;16.40;99.90
30973;DHT22;25423;45.624;13.790;2022-09-23T07:52:51;16.50;99.90
30973;DHT22;25423;45.624;13.790;2022-09-23T07:55:17;16.70;99.90
30973;DHT22;25423;45.624;13.790;2022-09-23T07:57:43;16.80;99.90
30973;DHT22;25423;45.624;13.790;2022-09-23T08:00:09;16.80;99.90
30973;DHT22;25423;45.624;13.790;2022-09-23T08:02:35;17.00;99.90
30973;DHT22;25423;45.624;13.790;2022-09-23T08:05:01;17.00;99.90
30973;DHT22;25423;45.624;13.790;2022-09-23T08:07:26;17.00;99.90
30973;DHT22;25423;45.624;13.790;2022-09-23T08:09:59;17.00;99.90
30973;DHT22;25423;45.624;13.790;2022-09-23T08:12:25;17.20;99.90
30973;DHT22;25423;45.624;13.790;2022-09-23T08:14:51;17.20;99.90
30973;DHT22;25423;45.624;13.790;2022-09-23T08:17:16;17.20;99.90
30973;DHT22;25423;45.624;13.790;2022-09-23T08:19:42;17.10;99.90
30973;DHT22;25423;45.624;13.790;2022-09-23T08:22:07;17.10;99.90
30973;DHT22;25423;45.624;13.790;2022-09-23T08:24:33;17.10;99.90
30973;DHT22;25423;45.624;13.790;2022-09-23T08:26:59;17.20;99.90
30973;DHT22;25423;45.624;13.790;2022-09-23T08:29:25;17.20;99.90
30973;DHT22;25423;45.624;13.790;2022-09-23T08:31:51;17.10;99.90
30973;DHT22;25423;45.624;13.790;2022-09-23T08:34:18;17.10;99.90
30973;DHT22;25423;45.624;13.790;2022-09-23T08:36:44;17.10;99.90
30973;DHT22;25423;45.624;13.790;2022-09-23T08:39:13;17.10;99.90
30973;DHT22;25423;45.624;13.790;2022-09-23T08:46:35;17.10;99.90
30973;DHT22;25423;45.624;13.790;2022-09-23T08:49:02;17.00;99.90
30973;DHT22;25423;45.624;13.790;2022-09-23T08:51:45;17.00;99.90
30973;DHT22;25423;45.624;13.790;2022-09-23T08:54:12;17.10;99.90
30973;DHT22;25423;45.624;13.790;2022-09-23T08:56:38;17.10;99.90
30973;DHT22;25423;45.624;13.790;2022-09-23T09:06:40;17.10;99.90
30973;DHT22;25423;45.624;13.790;2022-09-23T09:09:18;17.30;99.90
30973;DHT22;25423;45.624;13.790;2022-09-23T09:11:47;17.40;99.90
30973;DHT22;25423;45.624;13.790;2022-09-23T09:14:18;17.40;99.90
30973;DHT22;25423;45.624;13.790;2022-09-23T09:16:50;17.50;99.90
30973;DHT22;25423;45.624;13.790;2022-09-23T09:19:25;17.60;99.90
30973;DHT22;25423;45.624;13.790;2022-09-23T09:21:56;17.70;99.90
30973;DHT22;25423;45.624;13.790;2022-09-23T09:24:33;17.60;99.90
30973;DHT22;25423;45.624;13.790;2022-09-23T09:27:08;17.60;99.90
30973;DHT22;25423;45.624;13.790;2022-09-23T09:29:36;17.50;99.90
30973;DHT22;25423;45.624;13.790;2022-09-23T09:32:15;17.50;99.90
30973;DHT22;25423;45.624;13.790;2022-09-23T09:34:53;17.50;99.90
30973;DHT22;25423;45.624;13.790;2022-09-23T09:37:26;17.50;99.90
30973;DHT22;25423;45.624;13.790;2022-09-23T09:39:53;17.60;99.90
30973;DHT22;25423;45.624;13.790;2022-09-23T09:42:23;17.60;99.90
30973;DHT22;25423;45.624;13.790;2022-09-23T09:45:00;17.80;99.90
30973;DHT22;25423;45.624;13.790;2022-09-23T09:47:34;17.70;99.90
30973;DHT22;25423;45.624;13.790;2022-09-23T09:50:06;17.80;99.90
30973;DHT22;25423;45.624;13.790;2022-09-23T09:52:32;17.90;99.90
30973;DHT22;25423;45.624;13.790;2022-09-23T09:55:22;18.00;99.90
30973;DHT22;25423;45.624;13.790;2022-09-23T09:57:49;18.20;99.90
30973;DHT22;25423;45.624;13.790;2022-09-23T10:02:54;18.00;99.90
30973;DHT22;25423;45.624;13.790;2022-09-23T10:05:25;18.10;99.90
30973;DHT22;25423;45.624;13.790;2022-09-23T10:07:51;18.10;99.90
30973;DHT22;25423;45.624;13.790;2022-09-23T10:10:18;18.20;99.90
30973;DHT22;25423;45.624;13.790;2022-09-23T10:12:48;18.30;99.90
30973;DHT22;25423;45.624;13.790;2022-09-23T10:18:18;18.30;99.90
30973;DHT22;25423;45.624;13.790;2022-09-23T10:20:44;18.30;99.90
30973;DHT22;25423;45.624;13.790;2022-09-23T10:23:17;18.40;99.90
30973;DHT22;25423;45.624;13.790;2022-09-23T10:25:56;18.40;99.90
30973;DHT22;25423;45.624;13.790;2022-09-23T10:28:30;18.40;99.90
30973;DHT22;25423;45.624;13.790;2022-09-23T10:31:03;18.40;99.90
30973;DHT22;25423;45.624;13.790;2022-09-23T10:33:30;18.50;99.90
30973;DHT22;25423;45.624;13.790;2022-09-23T10:35:55;18.50;99.90
30973;DHT22;25423;45.624;13.790;2022-09-23T10:38:21;18.40;99.90
30973;DHT22;25423;45.624;13.790;2022-09-23T10:40:47;18.40;99.90
30973;DHT22;25423;45.624;13.790;2022-09-23T10:43:38;18.50;99.90
30973;DHT22;25423;45.624;13.790;2022-09-23T10:46:45;18.50;99.90
30973;DHT22;25423;45.624;13.790;2022-09-23T10:51:54;18.40;99.90
30973;DHT22;25423;45.624;13.790;2022-09-23T10:57:06;18.60;99.90
30973;DHT22;25423;45.624;13.790;2022-09-23T11:03:01;18.70;99.90
30973;DHT22;25423;45.624;13.790;2022-09-23T11:05:36;18.60;99.90
30973;DHT22;25423;45.624;13.790;2022-09-23T11:24:20;18.70;99.90
30973;DHT22;25423;45.624;13.790;2022-09-23T11:26:56;18.80;99.90
30973;DHT22;25423;45.624;13.790;2022-09-23T11:37:18;18.90;99.90
30973;DHT22;25423;45.624;13.790;2022-09-23T11:39:49;18.80;99.90
30973;DHT22;25423;45.624;13.790;2022-09-23T11:42:23;18.80;99.90
30973;DHT22;25423;45.624;13.790;2022-09-23T11:44:55;18.70;99.90
30973;DHT22;25423;45.624;13.790;2022-09-23T11:47:28;18.70;99.90
30973;DHT22;25423;45.624;13.790;2022-09-23T11:50:01;18.70;99.90
30973;DHT22;25423;45.624;13.790;2022-09-23T11:57:33;18.70;99.90
30973;DHT22;25423;45.624;13.790;2022-09-23T12:00:05;18.80;99.90
30973;DHT22;25423;45.624;13.790;2022-09-23T12:02:46;18.80;99.90
30973;DHT22;25423;45.624;13.790;2022-09-23T12:05:15;19.00;99.90
30973;DHT22;25423;45.624;13.790;2022-09-23T12:07:45;18.90;99.90
30973;DHT22;25423;45.624;13.790;2022-09-23T12:10:13;19.00;99.90
30973;DHT22;25423;45.624;13.790;2022-09-23T12:15:33;19.00;99.90
30973;DHT22;25423;45.624;13.790;2022-09-23T12:18:07;19.00;99.90
30973;DHT22;25423;45.624;13.790;2022-09-23T12:25:55;19.10;99.90
30973;DHT22;25423;45.624;13.790;2022-09-23T12:28:43;19.10;99.90
30973;DHT22;25423;45.624;13.790;2022-09-23T12:31:11;19.20;99.90
30973;DHT22;25423;45.624;13.790;2022-09-23T12:33:38;19.30;99.90
30973;DHT22;25423;45.624;13.790;2022-09-23T12:40:56;19.30;99.90
30973;DHT22;25423;45.624;13.790;2022-09-23T12:43:29;19.10;99.90
30973;DHT22;25423;45.624;13.790;2022-09-23T12:51:22;19.20;99.90
30973;DHT22;25423;45.624;13.790;2022-09-23T12:54:13;19.10;99.90
30973;DHT22;25423;45.624;13.790;2022-09-23T12:59:19;19.20;99.90
30973;DHT22;25423;45.624;13.790;2022-09-23T13:01:46;19.30;99.90
30973;DHT22;25423;45.624;13.790;2022-09-23T13:07:15;19.30;99.90
30973;DHT22;25423;45.624;13.790;2022-09-23T13:09:44;19.40;99.90
30973;DHT22;25423;45.624;13.790;2022-09-23T13:12:22;19.40;99.90
30973;DHT22;25423;45.624;13.790;2022-09-23T13:14:50;19.40;99.90
30973;DHT22;25423;45.624;13.790;2022-09-23T13:17:22;19.40;99.90
30973;DHT22;25423;45.624;13.790;2022-09-23T13:19:55;19.50;99.90
30973;DHT22;25423;45.624;13.790;2022-09-23T13:22:58;19.60;99.90
30973;DHT22;25423;45.624;13.790;2022-09-23T13:25:30;19.60;99.90
30973;DHT22;25423;45.624;13.790;2022-09-23T13:28:00;19.50;99.90
30973;DHT22;25423;45.624;13.790;2022-09-23T13:30:26;19.40;99.90
30973;DHT22;25423;45.624;13.790;2022-09-23T13:33:00;19.50;99.90
30973;DHT22;25423;45.624;13.790;2022-09-23T13:35:47;19.60;99.90
30973;DHT22;25423;45.624;13.790;2022-09-23T13:38:22;19.70;99.90
30973;DHT22;25423;45.624;13.790;2022-09-23T13:40:50;19.70;99.90
30973;DHT22;25423;45.624;13.790;2022-09-23T13:43:19;19.70;99.90
30973;DHT22;25423;45.624;13.790;2022-09-23T13:45:49;19.60;99.90
30973;DHT22;25423;45.624;13.790;2022-09-23T13:48:15;19.50;99.90
30973;DHT22;25423;45.624;13.790;2022-09-23T13:50:48;19.50;99.90
30973;DHT22;25423;45.624;13.790;2022-09-23T13:53:25;19.50;99.90
30973;DHT22;25423;45.624;13.790;2022-09-23T13:56:02;19.50;99.90
30973;DHT22;25423;45.624;13.790;2022-09-23T13:58:28;19.60;99.90
30973;DHT22;25423;45.624;13.790;2022-09-23T14:00:54;19.60;99.90
30973;DHT22;25423;45.624;13.790;2022-09-23T14:05:46;19.70;99.90
30973;DHT22;25423;45.624;13.790;2022-09-23T14:08:12;19.60;99.90
30973;DHT22;25423;45.624;13.790;2022-09-23T14:10:38;19.50;99.90
30973;DHT22;25423;45.624;13.790;2022-09-23T14:13:11;19.60;99.90
30973;DHT22;25423;45.624;13.790;2022-09-23T14:15:38;19.60;99.90
30973;DHT22;25423;45.624;13.790;2022-09-23T14:18:04;19.50;99.90
30973;DHT22;25423;45.624;13.790;2022-09-23T14:20:30;19.50;99.90
30973;DHT22;25423;45.624;13.790;2022-09-23T14:23:08;19.50;99.90
30973;DHT22;25423;45.624;13.790;2022-09-23T14:25:34;19.60;99.90
30973;DHT22;25423;45.624;13.790;2022-09-23T14:28:00;19.70;99.90
30973;DHT22;25423;45.624;13.790;2022-09-23T14:30:26;19.80;99.90
30973;DHT22;25423;45.624;13.790;2022-09-23T14:32:52;19.80;99.90
30973;DHT22;25423;45.624;13.790;2022-09-23T14:35:20;19.90;99.90
30973;DHT22;25423;45.624;13.790;2022-09-23T14:37:50;19.90;99.90
30973;DHT22;25423;45.624;13.790;2022-09-23T14:40:36;19.80;99.90
30973;DHT22;25423;45.624;13.790;2022-09-23T14:45:49;19.80;99.90
30973;DHT22;25423;45.624;13.790;2022-09-23T14:48:18;19.80;99.90
30973;DHT22;25423;45.624;13.790;2022-09-23T14:50:47;19.70;99.90
30973;DHT22;25423;45.624;13.790;2022-09-23T14:56:06;19.80;99.90
30973;DHT22;25423;45.624;13.790;2022-09-23T15:01:22;19.70;99.90
30973;DHT22;25423;45.624;13.790;2022-09-23T15:03:48;19.70;99.90
30973;DHT22;25423;45.624;13.790;2022-09-23T15:06:14;19.60;99.90
30973;DHT22;25423;45.624;13.790;2022-09-23T15:08:42;19.70;99.90
30973;DHT22;25423;45.624;13.790;2022-09-23T15:11:08;19.60;99.90
30973;DHT22;25423;45.624;13.790;2022-09-23T15:13:38;19.70;99.90
30973;DHT22;25423;45.624;13.790;2022-09-23T15:16:05;19.70;99.90
30973;DHT22;25423;45.624;13.790;2022-09-23T15:18:31;19.60;99.90
30973;DHT22;25423;45.624;13.790;2022-09-23T15:21:02;19.60;99.90
30973;DHT22;25423;45.624;13.790;2022-09-23T15:26:01;19.50;99.90
30973;DHT22;25423;45.624;13.790;2022-09-23T15:28:26;19.40;99.90
30973;DHT22;25423;45.624;13.790;2022-09-23T15:30:52;19.40;99.90
30973;DHT22;25423;45.624;13.790;2022-09-23T15:33:19;19.40;99.90
30973;DHT22;25423;45.624;13.790;2022-09-23T15:35:50;19.60;99.90
30973;DHT22;25423;45.624;13.790;2022-09-23T15:38:16;19.60;99.90
30973;DHT22;25423;45.624;13.790;2022-09-23T15:40:42;19.50;99.90
30973;DHT22;25423;45.624;13.790;2022-09-23T15:45:47;19.50;99.90
30973;DHT22;25423;45.624;13.790;2022-09-23T15:48:20;19.40;99.90
30973;DHT22;25423;45.624;13.790;2022-09-23T15:50:47;19.30;99.90
30973;DHT22;25423;45.624;13.790;2022-09-23T15:53:35;19.50;99.90
30973;DHT22;25423;45.624;13.790;2022-09-23T15:56:02;19.50;99.90
30973;DHT22;25423;45.624;13.790;2022-09-23T15:58:28;19.40;99.90
30973;DHT22;25423;45.624;13.790;2022-09-23T16:00:54;19.40;99.90
30973;DHT22;25423;45.624;13.790;2022-09-23T16:03:21;19.40;99.90
30973;DHT22;25423;45.624;13.790;2022-09-23T16:05:48;19.40;99.90
30973;DHT22;25423;45.624;13.790;2022-09-23T16:08:14;19.30;99.90
30973;DHT22;25423;45.624;13.790;2022-09-23T16:10:40;19.10;99.90
30973;DHT22;25423;45.624;13.790;2022-09-23T16:13:09;19.00;99.90
30973;DHT22;25423;45.624;13.790;2022-09-23T16:15:35;18.90;99.90
30973;DHT22;25423;45.624;13.790;2022-09-23T16:18:03;18.90;99.90
30973;DHT22;25423;45.624;13.790;2022-09-23T16:20:30;18.80;99.90
30973;DHT22;25423;45.624;13.790;2022-09-23T16:22:59;18.70;99.90
30973;DHT22;25423;45.624;13.790;2022-09-23T16:25:32;18.60;99.90
30973;DHT22;25423;45.624;13.790;2022-09-23T16:28:02;18.50;99.90
30973;DHT22;25423;45.624;13.790;2022-09-23T16:30:29;18.60;99.90
30973;DHT22;25423;45.624;13.790;2022-09-23T16:32:55;18.40;99.90
30973;DHT22;25423;45.624;13.790;2022-09-23T16:35:21;18.30;99.90
30973;DHT22;25423;45.624;13.790;2022-09-23T16:37:48;18.20;99.90
30973;DHT22;25423;45.624;13.790;2022-09-23T16:40:14;18.20;99.90
30973;DHT22;25423;45.624;13.790;2022-09-23T16:42:41;18.20;99.90
30973;DHT22;25423;45.624;13.790;2022-09-23T16:45:09;18.10;99.90
30973;DHT22;25423;45.624;13.790;2022-09-23T16:47:40;18.00;99.90
30973;DHT22;25423;45.624;13.790;2022-09-23T16:50:07;18.00;99.90
30973;DHT22;25423;45.624;13.790;2022-09-23T16:52:33;17.90;99.90
30973;DHT22;25423;45.624;13.790;2022-09-23T16:54:59;17.80;99.90
30973;DHT22;25423;45.624;13.790;2022-09-23T16:57:25;17.70;99.90
30973;DHT22;25423;45.624;13.790;2022-09-23T16:59:52;17.70;99.90
30973;DHT22;25423;45.624;13.790;2022-09-23T17:02:36;17.70;99.90
30973;DHT22;25423;45.624;13.790;2022-09-23T17:05:20;17.60;99.90
30973;DHT22;25423;45.624;13.790;2022-09-23T17:07:46;17.60;99.90
30973;DHT22;25423;45.624;13.790;2022-09-23T17:10:13;17.50;99.90
30973;DHT22;25423;45.624;13.790;2022-09-23T17:12:39;17.50;99.90
30973;DHT22;25423;45.624;13.790;2022-09-23T17:15:05;17.50;99.90
30973;DHT22;25423;45.624;13.790;2022-09-23T17:17:35;17.40;99.90
30973;DHT22;25423;45.624;13.790;2022-09-23T17:20:04;17.40;99.90
30973;DHT22;25423;45.624;13.790;2022-09-23T17:25:33;17.30;99.90
30973;DHT22;25423;45.624;13.790;2022-09-23T17:28:06;17.20;99.90
30973;DHT22;25423;45.624;13.790;2022-09-23T17:30:31;17.10;99.90
30973;DHT22;25423;45.624;13.790;2022-09-23T17:32:57;17.10;99.90
30973;DHT22;25423;45.624;13.790;2022-09-23T17:35:23;17.00;99.90
30973;DHT22;25423;45.624;13.790;2022-09-23T17:37:48;17.00;99.90
30973;DHT22;25423;45.624;13.790;2022-09-23T17:40:14;17.20;99.90
30973;DHT22;25423;45.624;13.790;2022-09-23T17:42:42;17.30;99.90
30973;DHT22;25423;45.624;13.790;2022-09-23T17:45:09;17.50;99.90
30973;DHT22;25423;45.624;13.790;2022-09-23T17:47:37;17.50;99.90
30973;DHT22;25423;45.624;13.790;2022-09-23T17:50:03;17.40;99.90